Time;durP1;ratioP1;P1;durP2;ratioP2;P2;SDS_P1;SDS_P2;PMS_P1;PMS_P2;Temp;Humidity;BMP_temperature;BMP_pressure;BME280_temperature;BME280_humidity;BME280_pressure;Samples;Min_cycle;Max_cycle;Signal;HPM_P1;HPM_P2
2023/12/20 00:01:20;;;;;;;;;;;;;;;;;;5096868;28;19912;-72
2023/12/20 00:03:46;;;;;;;;;;;;;;;;;;5078268;28;19909;-72
2023/12/20 00:06:12;;;;;;;;;;;;;;;;;;5096742;28;20368;-73
2023/12/20 00:08:38;;;;;;;;;;;;;;;;;;5078471;28;20007;-72
2023/12/20 00:11:04;;;;;;;;;;;;;;;;;;5096286;28;20320;-72
2023/12/20 00:13:30;;;;;;;;;;;;;;;;;;5096529;28;19908;-72
2023/12/20 00:15:56;;;;;;;;;;;;;;;;;;5096647;28;19915;-72
2023/12/20 00:18:22;;;;;;;;;;;;;;;;;;5096195;28;19916;-72
2023/12/20 00:20:48;;;;;;;;;;;;;;;;;;5095982;28;19915;-72
2023/12/20 00:23:14;;;;;;;;;;;;;;;;;;5078634;28;19951;-73
2023/12/20 00:25:40;;;;;;;;;;;;;;;;;;5096038;28;19909;-73
2023/12/20 00:28:06;;;;;;;;;;;;;;;;;;5096284;28;19923;-73
2023/12/20 00:30:32;;;;;;;;;;;;;;;;;;5096627;28;19913;-73
2023/12/20 00:32:58;;;;;;;;;;;;;;;;;;5095951;28;20383;-73
2023/12/20 00:35:24;;;;;;;;;;;;;;;;;;5096793;28;20356;-73
2023/12/20 00:37:50;;;;;;;;;;;;;;;;;;5096135;28;19915;-73
2023/12/20 00:40:16;;;;;;;;;;;;;;;;;;5095725;28;19908;-73
2023/12/20 00:42:42;;;;;;;;;;;;;;;;;;5096102;28;19908;-73
2023/12/20 00:45:08;;;;;;;;;;;;;;;;;;5096466;28;20402;-73
2023/12/20 00:47:34;;;;;;;;;;;;;;;;;;5095745;28;19908;-73
2023/12/20 00:50:00;;;;;;;;;;;;;;;;;;5095836;28;19927;-73
2023/12/20 00:52:26;;;;;;;;;;;;;;;;;;5095916;28;19908;-73
2023/12/20 00:54:52;;;;;;;;;;;;;;;;;;5095430;28;20007;-73
2023/12/20 00:57:18;;;;;;;;;;;;;;;;;;5077653;28;19908;-73
2023/12/20 00:59:44;;;;;;;;;;;;;;;;;;5096243;28;20417;-71
2023/12/20 01:02:09;;;;;;;;;;;;;;;;;;5095673;28;19908;-71
2023/12/20 01:04:35;;;;;;;;;;;;;;;;;;5095616;28;19908;-71
2023/12/20 01:07:02;;;;;;;;;;;;;;;;;;5095172;28;19908;-71
2023/12/20 01:09:28;;;;;;;;;;;;;;;;;;5095402;28;19916;-71
2023/12/20 01:11:53;;;;;;;;;;;;;;;;;;5095527;28;19914;-72
2023/12/20 01:14:19;;;;;;;;;;;;;;;;;;5095112;28;19909;-73
2023/12/20 01:16:45;;;;;;;;;;;;;;;;;;5095400;28;20425;-73
2023/12/20 01:19:11;;;;;;;;;;;;;;;;;;5095384;28;20314;-71
2023/12/20 01:21:37;;;;;;;;;;;;;;;;;;5076721;28;19908;-71
2023/12/20 01:24:03;;;;;;;;;;;;;;;;;;5095286;28;19953;-73
2023/12/20 01:26:29;;;;;;;;;;;;;;;;;;5077088;28;19908;-71
2023/12/20 01:28:55;;;;;;;;;;;;;;;;;;5094628;28;19917;-71
2023/12/20 01:31:21;;;;;;;;;;;;;;;;;;5095169;28;19965;-71
2023/12/20 01:33:47;;;;;;;;;;;;;;;;;;5094176;28;19908;-71
2023/12/20 01:36:13;;;;;;;;;;;;;;;;;;5094605;28;19962;-71
2023/12/20 01:38:39;;;;;;;;;;;;;;;;;;5076799;28;19908;-71
2023/12/20 01:41:05;;;;;;;;;;;;;;;;;;5094921;28;19912;-71
2023/12/20 01:43:31;;;;;;;;;;;;;;;;;;5094548;28;19919;-71
2023/12/20 01:45:57;;;;;;;;;;;;;;;;;;5076599;28;19908;-71
2023/12/20 01:48:23;;;;;;;;;;;;;;;;;;5094921;28;19999;-71
2023/12/20 01:50:49;;;;;;;;;;;;;;;;;;5094459;28;19908;-70
2023/12/20 01:53:15;;;;;;;;;;;;;;;;;;5094970;28;19908;-71
2023/12/20 01:55:41;;;;;;;;;;;;;;;;;;5094678;28;19912;-71
2023/12/20 01:58:07;;;;;;;;;;;;;;;;;;5094160;28;19973;-71
2023/12/20 02:00:33;;;;;;;;;;;;;;;;;;5094452;28;19908;-72
2023/12/20 02:02:59;;;;;;;;;;;;;;;;;;5094733;28;19908;-71
2023/12/20 02:05:25;;;;;;;;;;;;;;;;;;5094072;28;19914;-71
2023/12/20 02:07:51;;;;;;;;;;;;;;;;;;5094544;28;19938;-71
2023/12/20 02:10:17;;;;;;;;;;;;;;;;;;5094059;28;19962;-73
2023/12/20 02:12:43;;;;;;;;;;;;;;;;;;5094336;28;19909;-71
2023/12/20 02:15:09;;;;;;;;;;;;;;;;;;5094308;28;19908;-71
2023/12/20 02:17:35;;;;;;;;;;;;;;;;;;5094132;28;19974;-70
2023/12/20 02:20:01;;;;;;;;;;;;;;;;;;5094210;28;19959;-71
2023/12/20 02:22:27;;;;;;;;;;;;;;;;;;5094295;28;19908;-71
2023/12/20 02:24:53;;;;;;;;;;;;;;;;;;5093821;28;19908;-72
2023/12/20 02:27:19;;;;;;;;;;;;;;;;;;5094136;28;20299;-72
2023/12/20 02:29:45;;;;;;;;;;;;;;;;;;5094034;28;19916;-72
2023/12/20 02:32:11;;;;;;;;;;;;;;;;;;5093755;28;19912;-72
2023/12/20 02:34:37;;;;;;;;;;;;;;;;;;5075888;28;19908;-72
2023/12/20 02:37:03;;;;;;;;;;;;;;;;;;5093937;28;19999;-73
2023/12/20 02:39:29;;;;;;;;;;;;;;;;;;5093652;28;20342;-73
2023/12/20 02:41:55;;;;;;;;;;;;;;;;;;5093940;28;20276;-72
2023/12/20 02:44:20;;;;;;;;;;;;;;;;;;5093838;28;20333;-72
2023/12/20 02:46:46;;;;;;;;;;;;;;;;;;5093573;28;19943;-72
2023/12/20 02:49:12;;;;;;;;;;;;;;;;;;5093646;28;19947;-72
2023/12/20 02:51:38;;;;;;;;;;;;;;;;;;5075687;28;19914;-72
2023/12/20 02:54:05;;;;;;;;;;;;;;;;;;5093414;28;19915;-72
2023/12/20 02:56:31;;;;;;;;;;;;;;;;;;5094065;28;20011;-72
2023/12/20 02:58:57;;;;;;;;;;;;;;;;;;5075663;28;19955;-73
2023/12/20 03:01:22;;;;;;;;;;;;;;;;;;5093326;28;19915;-72
2023/12/20 03:03:48;;;;;;;;;;;;;;;;;;5075648;28;19908;-73
2023/12/20 03:06:14;;;;;;;;;;;;;;;;;;5094028;28;19915;-73
2023/12/20 03:08:41;;;;;;;;;;;;;;;;;;5093311;28;19928;-72
2023/12/20 03:11:07;;;;;;;;;;;;;;;;;;5093780;28;20272;-73
2023/12/20 03:13:33;;;;;;;;;;;;;;;;;;5075177;28;19975;-73
2023/12/20 03:15:59;;;;;;;;;;;;;;;;;;5093906;28;20364;-73
2023/12/20 03:18:27;;;;;;;;;;;;;;;;;;5093573;28;19961;-72
2023/12/20 03:20:53;;;;;;;;;;;;;;;;;;5093191;28;19953;-72
2023/12/20 03:23:19;;;;;;;;;;;;;;;;;;5093518;28;20006;-72
2023/12/20 03:25:45;;;;;;;;;;;;;;;;;;5093581;28;19917;-72
2023/12/20 03:28:11;;;;;;;;;;;;;;;;;;5074966;28;19912;-72
2023/12/20 03:30:37;;;;;;;;;;;;;;;;;;5093510;28;19951;-72
2023/12/20 03:33:03;;;;;;;;;;;;;;;;;;5093755;28;19908;-72
2023/12/20 03:35:29;;;;;;;;;;;;;;;;;;5093503;28;19914;-72
2023/12/20 03:37:56;;;;;;;;;;;;;;;;;;5093474;28;19987;-72
2023/12/20 03:40:22;;;;;;;;;;;;;;;;;;5093620;28;19908;-72
2023/12/20 03:42:48;;;;;;;;;;;;;;;;;;5074893;28;19934;-73
2023/12/20 03:45:14;;;;;;;;;;;;;;;;;;5093369;28;19908;-73
2023/12/20 03:47:40;;;;;;;;;;;;;;;;;;5093377;28;19930;-73
2023/12/20 03:50:06;;;;;;;;;;;;;;;;;;5074557;28;19920;-73
2023/12/20 03:52:32;;;;;;;;;;;;;;;;;;5075181;28;19908;-73
2023/12/20 03:54:58;;;;;;;;;;;;;;;;;;5093438;28;19915;-73
2023/12/20 03:57:24;;;;;;;;;;;;;;;;;;5095580;28;19915;-73
2023/12/20 03:59:50;;;;;;;;;;;;;;;;;;5096926;28;19950;-73
2023/12/20 04:02:17;;;;;;;;;;;;;;;;;;5096898;28;19915;-73
2023/12/20 04:04:43;;;;;;;;;;;;;;;;;;5096487;28;19908;-73
2023/12/20 04:07:09;;;;;;;;;;;;;;;;;;5096834;28;20387;-74
2023/12/20 04:09:35;;;;;;;;;;;;;;;;;;5096735;28;20355;-73
2023/12/20 04:12:01;;;;;;;;;;;;;;;;;;5096384;28;20337;-73
2023/12/20 04:14:27;;;;;;;;;;;;;;;;;;5096688;28;19957;-73
2023/12/20 04:16:53;;;;;;;;;;;;;;;;;;5096212;28;20314;-73
2023/12/20 04:19:19;;;;;;;;;;;;;;;;;;5096505;28;20287;-72
2023/12/20 04:21:45;;;;;;;;;;;;;;;;;;5078336;28;19977;-72
2023/12/20 04:24:11;;;;;;;;;;;;;;;;;;5077853;28;19948;-71
2023/12/20 04:26:37;;;;;;;;;;;;;;;;;;5078213;28;19908;-72
2023/12/20 04:29:03;;;;;;;;;;;;;;;;;;5096255;28;19916;-72
2023/12/20 04:31:29;;;;;;;;;;;;;;;;;;5096074;28;19915;-72
2023/12/20 04:33:55;;;;;;;;;;;;;;;;;;5078053;28;20373;-72
2023/12/20 04:36:21;;;;;;;;;;;;;;;;;;5078111;28;20300;-72
2023/12/20 04:38:47;;;;;;;;;;;;;;;;;;5077965;28;19930;-72
2023/12/20 04:41:15;;;;;;;;;;;;;;;;;;5077953;28;19915;-73
2023/12/20 04:43:41;;;;;;;;;;;;;;;;;;5096065;28;19912;-72
2023/12/20 04:46:07;;;;;;;;;;;;;;;;;;5095595;28;19916;-73
2023/12/20 04:48:33;;;;;;;;;;;;;;;;;;5095724;28;19920;-73
2023/12/20 04:50:59;;;;;;;;;;;;;;;;;;5096180;28;19908;-72
2023/12/20 04:53:25;;;;;;;;;;;;;;;;;;5095474;28;19912;-72
2023/12/20 04:55:51;;;;;;;;;;;;;;;;;;5095857;28;20330;-72
2023/12/20 04:58:17;;;;;;;;;;;;;;;;;;5095888;28;19912;-72
2023/12/20 05:00:43;;;;;;;;;;;;;;;;;;5077175;28;19912;-72
2023/12/20 05:03:09;;;;;;;;;;;;;;;;;;5095630;28;19908;-72
2023/12/20 05:05:35;;;;;;;;;;;;;;;;;;5095471;28;19908;-72
2023/12/20 05:08:01;;;;;;;;;;;;;;;;;;5095169;28;19919;-72
2023/12/20 05:10:27;;;;;;;;;;;;;;;;;;5095708;28;20296;-72
2023/12/20 05:12:53;;;;;;;;;;;;;;;;;;5096024;28;19970;-73
2023/12/20 05:15:19;;;;;;;;;;;;;;;;;;5076792;28;20368;-73
2023/12/20 05:17:45;;;;;;;;;;;;;;;;;;5095466;28;19908;-72
2023/12/20 05:20:11;;;;;;;;;;;;;;;;;;5094978;28;19912;-73
2023/12/20 05:22:37;;;;;;;;;;;;;;;;;;5095366;28;19908;-73
2023/12/20 05:25:04;;;;;;;;;;;;;;;;;;5095311;28;19914;-73
2023/12/20 05:27:30;;;;;;;;;;;;;;;;;;5094853;28;19908;-73
2023/12/20 05:29:57;;;;;;;;;;;;;;;;;;5095069;28;20310;-73
2023/12/20 05:32:23;;;;;;;;;;;;;;;;;;5076913;28;19908;-72
2023/12/20 05:34:49;;;;;;;;;;;;;;;;;;5094797;28;19953;-72
2023/12/20 05:37:15;;;;;;;;;;;;;;;;;;5094988;28;19908;-73
2023/12/20 05:39:41;;;;;;;;;;;;;;;;;;5095428;28;19916;-73
2023/12/20 05:42:07;;;;;;;;;;;;;;;;;;5094572;28;20326;-73
2023/12/20 05:44:33;;;;;;;;;;;;;;;;;;5094869;28;19951;-73
2023/12/20 05:46:59;;;;;;;;;;;;;;;;;;5076667;28;20383;-74
2023/12/20 05:49:24;;;;;;;;;;;;;;;;;;5076065;28;20372;-73
2023/12/20 05:51:51;;;;;;;;;;;;;;;;;;5095088;28;20265;-73
2023/12/20 05:54:17;;;;;;;;;;;;;;;;;;5094823;28;19912;-73
2023/12/20 05:56:43;;;;;;;;;;;;;;;;;;5094245;28;19908;-73
2023/12/20 05:59:09;;;;;;;;;;;;;;;;;;5094633;28;19912;-73
2023/12/20 06:01:35;;;;;;;;;;;;;;;;;;5094674;28;19944;-73
2023/12/20 06:04:01;;;;;;;;;;;;;;;;;;5094067;28;20335;-72
2023/12/20 06:06:27;;;;;;;;;;;;;;;;;;5076329;28;19943;-72
2023/12/20 06:08:53;;;;;;;;;;;;;;;;;;5094557;28;19955;-72
2023/12/20 06:11:19;;;;;;;;;;;;;;;;;;5075724;28;20334;-72
2023/12/20 06:13:45;;;;;;;;;;;;;;;;;;5094349;28;19912;-71
2023/12/20 06:16:11;;;;;;;;;;;;;;;;;;5076177;28;19919;-71
2023/12/20 06:18:37;;;;;;;;;;;;;;;;;;5075701;28;19908;-72
2023/12/20 06:21:03;;;;;;;;;;;;;;;;;;5094235;28;19916;-72
2023/12/20 06:23:29;;;;;;;;;;;;;;;;;;5075612;28;19908;-73
2023/12/20 06:25:54;;;;;;;;;;;;;;;;;;5093978;28;19990;-71
2023/12/20 06:28:20;;;;;;;;;;;;;;;;;;5093009;28;19916;-70
2023/12/20 06:30:49;;;;;;;;;;;;;;;;;;5093358;28;19912;-73
2023/12/20 06:33:15;;;;;;;;;;;;;;;;;;5094024;28;19908;-71
2023/12/20 06:35:41;;;;;;;;;;;;;;;;;;5092215;28;19938;-69
2023/12/20 06:38:07;;;;;;;;;;;;;;;;;;5091724;28;19916;-69
2023/12/20 06:40:33;;;;;;;;;;;;;;;;;;5091731;28;20284;-69
2023/12/20 06:42:59;;;;;;;;;;;;;;;;;;5094173;28;20390;-70
2023/12/20 06:45:25;;;;;;;;;;;;;;;;;;5074483;28;19912;-69
2023/12/20 06:47:51;;;;;;;;;;;;;;;;;;5092867;28;19917;-68
2023/12/20 06:50:17;;;;;;;;;;;;;;;;;;5092552;28;20588;-69
2023/12/20 06:52:43;;;;;;;;;;;;;;;;;;5090505;28;19908;-71
2023/12/20 06:55:09;;;;;;;;;;;;;;;;;;5086073;28;19992;-70
2023/12/20 06:57:36;;;;;;;;;;;;;;;;;;5091366;28;19908;-68
2023/12/20 07:00:02;;;;;;;;;;;;;;;;;;5094418;28;19916;-71
2023/12/20 07:02:30;;;;;;;;;;;;;;;;;;5069244;28;19968;-68
2023/12/20 07:04:56;;;;;;;;;;;;;;;;;;5091190;28;19916;-70
2023/12/20 07:07:24;;;;;;;;;;;;;;;;;;5074052;28;19924;-69
2023/12/20 07:09:50;;;;;;;;;;;;;;;;;;5105040;28;19915;-69
2023/12/20 07:12:16;;;;;;;;;;;;;;;;;;5075045;28;20014;-68
2023/12/20 07:14:42;;;;;;;;;;;;;;;;;;5088457;28;20110;-69
2023/12/20 07:17:11;;;;;;;;;;;;;;;;;;5087896;28;19912;-68
2023/12/20 07:19:37;;;;;;;;;;;;;;;;;;5083279;28;20385;-70
2023/12/20 07:22:03;;;;;;;;;;;;;;;;;;5085884;28;19995;-69
2023/12/20 07:24:29;;;;;;;;;;;;;;;;;;5070137;28;20023;-68
2023/12/20 07:26:55;;;;;;;;;;;;;;;;;;5089249;28;20023;-69
2023/12/20 07:29:21;;;;;;;;;;;;;;;;;;5086133;28;19935;-68
2023/12/20 07:31:47;;;;;;;;;;;;;;;;;;5081433;28;19915;-67
2023/12/20 07:34:13;;;;;;;;;;;;;;;;;;5104135;28;19946;-69
2023/12/20 07:36:39;;;;;;;;;;;;;;;;;;5092233;28;19912;-69
2023/12/20 07:39:05;;;;;;;;;;;;;;;;;;5073693;28;20647;-71
2023/12/20 07:41:31;;;;;;;;;;;;;;;;;;5073710;28;20333;-69
2023/12/20 07:43:57;;;;;;;;;;;;;;;;;;5091733;28;20394;-70
2023/12/20 07:46:23;;;;;;;;;;;;;;;;;;5091526;28;20276;-69
2023/12/20 07:48:49;;;;;;;;;;;;;;;;;;5089408;28;20023;-69
2023/12/20 07:51:16;;;;;;;;;;;;;;;;;;5084473;28;19995;-69
2023/12/20 07:53:41;;;;;;;;;;;;;;;;;;5090659;28;19962;-69
2023/12/20 07:56:07;;;;;;;;;;;;;;;;;;5091475;28;19920;-70
2023/12/20 07:58:33;;;;;;;;;;;;;;;;;;5089998;28;19966;-69
2023/12/20 08:00:59;;;;;;;;;;;;;;;;;;5085295;28;20002;-69
2023/12/20 08:03:25;;;;;;;;;;;;;;;;;;5072625;28;19923;-69
2023/12/20 08:05:51;;;;;;;;;;;;;;;;;;5091365;28;19916;-69
2023/12/20 08:08:17;;;;;;;;;;;;;;;;;;5090232;28;20467;-68
2023/12/20 08:10:43;;;;;;;;;;;;;;;;;;5090951;28;19917;-69
2023/12/20 08:13:09;;;;;;;;;;;;;;;;;;5107589;28;19912;-69
2023/12/20 08:15:35;;;;;;;;;;;;;;;;;;5113041;28;20374;-69
2023/12/20 08:18:01;;;;;;;;;;;;;;;;;;5109104;28;19916;-69
2023/12/20 08:20:27;;;;;;;;;;;;;;;;;;5092318;28;19927;-67
2023/12/20 08:22:53;;;;;;;;;;;;;;;;;;5079021;28;19912;-69
2023/12/20 08:25:19;;;;;;;;;;;;;;;;;;5089534;28;19913;-68
2023/12/20 08:27:45;;;;;;;;;;;;;;;;;;5086079;28;19913;-69
2023/12/20 08:30:12;;;;;;;;;;;;;;;;;;5075716;28;19924;-69
2023/12/20 08:32:38;;;;;;;;;;;;;;;;;;5091933;28;19919;-70
2023/12/20 08:35:04;;;;;;;;;;;;;;;;;;5091344;28;20531;-68
2023/12/20 08:37:30;;;;;;;;;;;;;;;;;;5090879;28;20007;-69
2023/12/20 08:39:56;;;;;;;;;;;;;;;;;;5091102;28;20027;-68
2023/12/20 08:42:24;;;;;;;;;;;;;;;;;;5091997;28;19912;-69
2023/12/20 08:44:50;;;;;;;;;;;;;;;;;;5091291;28;19909;-75
2023/12/20 08:47:17;;;;;;;;;;;;;;;;;;5092608;28;20265;-70
2023/12/20 08:49:43;;;;;;;;;;;;;;;;;;5092284;28;19974;-71
2023/12/20 08:52:09;;;;;;;;;;;;;;;;;;5072894;28;19923;-71
2023/12/20 08:54:35;;;;;;;;;;;;;;;;;;5089304;28;19942;-67
2023/12/20 08:57:01;;;;;;;;;;;;;;;;;;5089888;28;19912;-68
2023/12/20 08:59:27;;;;;;;;;;;;;;;;;;5091027;28;19919;-67
2023/12/20 09:01:54;;;;;;;;;;;;;;;;;;5074541;28;20369;-69
2023/12/20 09:04:20;;;;;;;;;;;;;;;;;;5093932;28;19951;-67
2023/12/20 09:06:46;;;;;;;;;;;;;;;;;;5093407;28;19958;-68
2023/12/20 09:09:14;;;;;;;;;;;;;;;;;;5097251;28;19927;-68
2023/12/20 09:11:40;;;;;;;;;;;;;;;;;;5073365;28;20011;-68
2023/12/20 09:14:06;;;;;;;;;;;;;;;;;;5098618;28;20010;-70
2023/12/20 09:16:32;;;;;;;;;;;;;;;;;;5095201;28;19919;-69
2023/12/20 09:18:58;;;;;;;;;;;;;;;;;;5092444;28;19958;-69
2023/12/20 09:21:24;;;;;;;;;;;;;;;;;;5091894;28;19954;-69
2023/12/20 09:23:50;;;;;;;;;;;;;;;;;;5091784;28;20261;-69
2023/12/20 09:26:16;;;;;;;;;;;;;;;;;;5096096;28;19920;-69
2023/12/20 09:28:42;;;;;;;;;;;;;;;;;;5090512;28;20029;-69
2023/12/20 09:31:08;;;;;;;;;;;;;;;;;;5090064;28;20025;-69
2023/12/20 09:33:33;;;;;;;;;;;;;;;;;;5091042;28;19908;-69
2023/12/20 09:36:00;;;;;;;;;;;;;;;;;;5092944;28;19912;-70
2023/12/20 09:38:26;;;;;;;;;;;;;;;;;;5092087;28;20375;-68
2023/12/20 09:40:52;;;;;;;;;;;;;;;;;;5072261;28;19920;-71
2023/12/20 09:43:17;;;;;;;;;;;;;;;;;;5090660;28;19958;-68
2023/12/20 09:45:43;;;;;;;;;;;;;;;;;;5070772;28;19947;-69
2023/12/20 09:48:09;;;;;;;;;;;;;;;;;;5072064;28;19920;-69
2023/12/20 09:50:35;;;;;;;;;;;;;;;;;;5082551;28;19920;-70
2023/12/20 09:53:01;;;;;;;;;;;;;;;;;;5082576;28;19966;-71
2023/12/20 09:55:27;;;;;;;;;;;;;;;;;;5069588;28;19948;-67
2023/12/20 09:57:53;;;;;;;;;;;;;;;;;;5083796;28;19912;-66
2023/12/20 10:00:19;;;;;;;;;;;;;;;;;;5086054;28;19967;-69
2023/12/20 10:02:46;;;;;;;;;;;;;;;;;;5077767;28;20004;-67
2023/12/20 10:05:12;;;;;;;;;;;;;;;;;;5056769;28;19912;-69
2023/12/20 10:07:38;;;;;;;;;;;;;;;;;;5083483;28;19912;-67
2023/12/20 10:10:04;;;;;;;;;;;;;;;;;;5095601;28;20307;-68
2023/12/20 10:12:30;;;;;;;;;;;;;;;;;;5077341;28;19912;-66
2023/12/20 10:14:56;;;;;;;;;;;;;;;;;;5083564;28;19916;-67
2023/12/20 10:17:23;;;;;;;;;;;;;;;;;;5087674;28;19912;-67
2023/12/20 10:19:49;;;;;;;;;;;;;;;;;;5073795;28;20049;-69
2023/12/20 10:22:15;;;;;;;;;;;;;;;;;;5090560;28;19961;-67
2023/12/20 10:24:41;;;;;;;;;;;;;;;;;;5088505;28;19916;-68
2023/12/20 10:27:07;;;;;;;;;;;;;;;;;;5088345;28;20012;-67
2023/12/20 10:29:33;;;;;;;;;;;;;;;;;;5090420;28;19920;-70
2023/12/20 10:31:59;;;;;;;;;;;;;;;;;;5067729;28;19916;-70
2023/12/20 10:34:25;;;;;;;;;;;;;;;;;;5084978;28;20003;-66
2023/12/20 10:36:51;;;;;;;;;;;;;;;;;;5065095;28;19916;-66
2023/12/20 10:39:17;;;;;;;;;;;;;;;;;;5080299;28;19912;-68
2023/12/20 10:41:43;;;;;;;;;;;;;;;;;;5082812;28;19935;-68
2023/12/20 10:44:09;;;;;;;;;;;;;;;;;;5070274;28;20553;-69
2023/12/20 10:46:36;;;;;;;;;;;;;;;;;;5077687;28;20680;-69
2023/12/20 10:49:01;;;;;;;;;;;;;;;;;;5085259;28;19927;-68
2023/12/20 10:51:30;;;;;;;;;;;;;;;;;;5083395;28;19939;-68
2023/12/20 10:53:56;;;;;;;;;;;;;;;;;;5085938;28;20108;-69
2023/12/20 10:56:23;;;;;;;;;;;;;;;;;;5066800;28;19970;-68
2023/12/20 10:58:49;;;;;;;;;;;;;;;;;;5087319;28;19915;-67
2023/12/20 11:01:15;;;;;;;;;;;;;;;;;;5085773;28;20002;-67
2023/12/20 11:03:41;;;;;;;;;;;;;;;;;;5085465;28;20058;-66
2023/12/20 11:06:07;;;;;;;;;;;;;;;;;;5090270;28;20035;-66
2023/12/20 11:08:33;;;;;;;;;;;;;;;;;;5092993;28;20412;-67
2023/12/20 11:10:59;;;;;;;;;;;;;;;;;;5093629;28;19912;-67
2023/12/20 11:13:25;;;;;;;;;;;;;;;;;;5093557;28;19990;-66
2023/12/20 11:15:51;;;;;;;;;;;;;;;;;;5091646;28;19913;-66
2023/12/20 11:18:17;;;;;;;;;;;;;;;;;;5083476;28;19917;-67
2023/12/20 11:20:43;;;;;;;;;;;;;;;;;;5069394;28;19999;-66
2023/12/20 11:23:09;;;;;;;;;;;;;;;;;;5079165;28;20663;-66
2023/12/20 11:25:35;;;;;;;;;;;;;;;;;;5079456;28;19916;-68
2023/12/20 11:28:01;;;;;;;;;;;;;;;;;;5072520;28;19974;-67
2023/12/20 11:30:27;;;;;;;;;;;;;;;;;;5080820;28;19920;-68
2023/12/20 11:34:22;;;;;;;;;;;;;;;;;;5127118;27;20260;-67
2023/12/20 11:36:48;;;;;;;;;;;;;;;;;;5096710;28;19911;-68
2023/12/20 11:39:14;;;;;;;;;;;;;;;;;;5119929;28;20419;-67
2023/12/20 11:45:44;;;;;;;;;;;;;;;;;;5086295;27;19916;-68
2023/12/20 11:48:10;;;;;;;;;;;;;;;;;;5084501;28;20000;-68
2023/12/20 11:50:36;;;;;;;;;;;;;;;;;;5093710;28;20013;-69
2023/12/20 11:53:02;;;;;;;;;;;;;;;;;;5082628;28;19908;-68
2023/12/20 11:56:30;;;;;;;;;;;;;;;;;;5090068;27;20295;-68
2023/12/20 11:58:56;;;;;;;;;;;;;;;;;;5090220;28;19919;-69
2023/12/20 12:03:31;;;;;;;;;;;;;;;;;;5149528;27;20002;-69
2023/12/20 12:05:57;;;;;;;;;;;;;;;;;;5107548;28;19962;-69
2023/12/20 12:08:23;;;;;;;;;;;;;;;;;;5117600;28;20359;-71
2023/12/20 12:12:17;;;;;;;;;;;;;;;;;;5084953;27;19916;-72
2023/12/20 12:18:43;;;;;;;;;;;;;;;;;;5086499;27;19920;-72
2023/12/20 12:21:09;;;;;;;;;;;;;;;;;;5070550;28;19913;-73
2023/12/20 12:23:35;;;;;;;;;;;;;;;;;;5079103;28;19966;-71
2023/12/20 12:26:01;;;;;;;;;;;;;;;;;;5070014;28;20319;-70
2023/12/20 12:28:32;;;;;;;;;;;;;;;;;;5068538;28;19931;-70
2023/12/20 12:30:58;;;;;;;;;;;;;;;;;;5068292;28;19930;-68
2023/12/20 12:33:24;;;;;;;;;;;;;;;;;;5067891;28;19970;-69
2023/12/20 12:35:50;;;;;;;;;;;;;;;;;;5066601;28;19908;-69
2023/12/20 12:38:16;;;;;;;;;;;;;;;;;;5068445;28;20391;-66
2023/12/20 12:40:42;;;;;;;;;;;;;;;;;;5081120;28;19949;-66
2023/12/20 12:43:53;;;;;;;;;;;;;;;;;;5130737;27;19922;-66
2023/12/20 12:48:43;;;;;;;;;;;;;;;;;;5110013;27;19923;-66
2023/12/20 12:51:13;;;;;;;;;;;;;;;;;;5094609;28;20265;-67
2023/12/20 12:57:23;;;;;;;;;;;;;;;;;;5092055;27;19920;-66
2023/12/20 13:01:58;;;;;;;;;;;;;;;;;;5089034;27;19925;-67
2023/12/20 13:04:24;;;;;;;;;;;;;;;;;;5089731;28;19931;-67
2023/12/20 13:06:50;;;;;;;;;;;;;;;;;;5098275;28;19909;-66
2023/12/20 13:10:46;;;;;;;;;;;;;;;;;;5102897;27;19942;-67
2023/12/20 13:13:12;;;;;;;;;;;;;;;;;;5091683;28;20360;-66
2023/12/20 13:15:38;;;;;;;;;;;;;;;;;;5087105;28;19917;-66
2023/12/20 13:23:42;;;;;;;;;;;;;;;;;;5067437;28;19920;-68
2023/12/20 13:29:02;;;;;;;;;;;;;;;;;;5087478;28;19920;-67
2023/12/20 13:31:28;;;;;;;;;;;;;;;;;;5085092;28;19912;-66
2023/12/20 13:34:30;;;;;;;;;;;;;;;;;;5088148;27;19927;-67
2023/12/20 13:39:02;;;;;;;;;;;;;;;;;;5110839;27;20018;-68
2023/12/20 13:41:28;;;;;;;;;;;;;;;;;;5108633;28;19912;-67
2023/12/20 13:46:11;;;;;;;;;;;;;;;;;;5095318;27;19920;-68
2023/12/20 13:48:37;;;;;;;;;;;;;;;;;;5087350;28;19919;-67
2023/12/20 13:51:03;;;;;;;;;;;;;;;;;;5087565;28;19908;-68
2023/12/20 13:53:29;;;;;;;;;;;;;;;;;;5088251;28;19970;-67
2023/12/20 13:58:30;;;;;;;;;;;;;;;;;;5087043;27;19920;-74
2023/12/20 14:00:56;;;;;;;;;;;;;;;;;;5087561;28;19966;-74
2023/12/20 14:03:37;;;;;;;;;;;;;;;;;;5149662;27;19942;-74
2023/12/20 14:06:16;;;;;;;;;;;;;;;;;;5150817;27;19919;-73
2023/12/20 14:11:25;;;;;;;;;;;;;;;;;;5091165;27;19922;-74
2023/12/20 14:14:10;;;;;;;;;;;;;;;;;;5150819;27;19918;-74
2023/12/20 14:16:36;;;;;;;;;;;;;;;;;;5131320;27;19994;-74
2023/12/20 14:19:03;;;;;;;;;;;;;;;;;;5150192;27;19907;-74
2023/12/20 14:21:29;;;;;;;;;;;;;;;;;;5151030;27;20370;-73
2023/12/20 14:27:32;;;;;;;;;;;;;;;;;;5089971;27;19923;-74
2023/12/20 14:29:58;;;;;;;;;;;;;;;;;;5090924;28;19995;-73
2023/12/20 14:32:26;;;;;;;;;;;;;;;;;;5091600;28;19909;-73
2023/12/20 14:34:52;;;;;;;;;;;;;;;;;;5091137;28;20325;-73
2023/12/20 14:37:18;;;;;;;;;;;;;;;;;;5090748;28;19980;-74
2023/12/20 14:39:44;;;;;;;;;;;;;;;;;;5091111;28;19909;-74
2023/12/20 14:42:13;;;;;;;;;;;;;;;;;;5091095;28;19909;-74
2023/12/20 14:45:09;;;;;;;;;;;;;;;;;;5091683;27;20261;-74
2023/12/20 14:47:35;;;;;;;;;;;;;;;;;;5091659;28;20003;-73
2023/12/20 14:50:01;;;;;;;;;;;;;;;;;;5090589;28;20035;-73
2023/12/20 14:52:27;;;;;;;;;;;;;;;;;;5091243;28;19908;-73
2023/12/20 14:54:53;;;;;;;;;;;;;;;;;;5091130;28;19909;-73
2023/12/20 14:57:19;;;;;;;;;;;;;;;;;;5090699;28;19982;-73
2023/12/20 14:59:45;;;;;;;;;;;;;;;;;;5091007;28;19908;-74
2023/12/20 15:02:11;;;;;;;;;;;;;;;;;;5090967;28;20403;-73
2023/12/20 15:04:37;;;;;;;;;;;;;;;;;;5090445;28;19917;-73
2023/12/20 15:07:05;;;;;;;;;;;;;;;;;;5089684;28;19908;-73
2023/12/20 15:09:31;;;;;;;;;;;;;;;;;;5090959;28;19961;-75
2023/12/20 15:11:57;;;;;;;;;;;;;;;;;;5090485;28;19977;-74
2023/12/20 15:14:23;;;;;;;;;;;;;;;;;;5091099;28;19923;-73
2023/12/20 15:16:49;;;;;;;;;;;;;;;;;;5090872;28;20321;-73
2023/12/20 15:19:15;;;;;;;;;;;;;;;;;;5090445;28;19931;-74
2023/12/20 15:21:42;;;;;;;;;;;;;;;;;;5089963;28;19915;-74
2023/12/20 15:24:13;;;;;;;;;;;;;;;;;;5090585;28;19916;-74
2023/12/20 15:26:39;;;;;;;;;;;;;;;;;;5088850;28;19912;-75
2023/12/20 15:29:06;;;;;;;;;;;;;;;;;;5090644;28;20360;-74
2023/12/20 15:31:32;;;;;;;;;;;;;;;;;;5090808;28;20025;-74
2023/12/20 15:33:58;;;;;;;;;;;;;;;;;;5088684;28;19955;-75
2023/12/20 15:36:24;;;;;;;;;;;;;;;;;;5090373;28;19908;-75
2023/12/20 15:38:50;;;;;;;;;;;;;;;;;;5090318;28;20269;-72
2023/12/20 15:41:16;;;;;;;;;;;;;;;;;;5089957;28;19912;-74
2023/12/20 15:43:42;;;;;;;;;;;;;;;;;;5098694;28;19920;-74
2023/12/20 15:46:08;;;;;;;;;;;;;;;;;;5110148;28;19947;-74
2023/12/20 15:48:34;;;;;;;;;;;;;;;;;;5110575;28;19908;-74
2023/12/20 15:51:00;;;;;;;;;;;;;;;;;;5092363;28;19915;-73
2023/12/20 15:53:26;;;;;;;;;;;;;;;;;;5110047;28;19944;-74
2023/12/20 15:55:52;;;;;;;;;;;;;;;;;;5100337;28;19915;-74
2023/12/20 15:58:17;;;;;;;;;;;;;;;;;;5096888;28;19908;-76
2023/12/20 16:00:43;;;;;;;;;;;;;;;;;;5078269;28;19908;-73
2023/12/20 16:03:09;;;;;;;;;;;;;;;;;;5096572;28;19938;-74
2023/12/20 16:05:35;;;;;;;;;;;;;;;;;;5097065;28;20003;-75
2023/12/20 16:08:01;;;;;;;;;;;;;;;;;;5096506;28;20322;-72
2023/12/20 16:10:27;;;;;;;;;;;;;;;;;;5096523;28;20313;-74
2023/12/20 16:12:53;;;;;;;;;;;;;;;;;;5096467;28;19908;-74
2023/12/20 16:15:19;;;;;;;;;;;;;;;;;;5096136;28;19916;-73
2023/12/20 16:17:45;;;;;;;;;;;;;;;;;;5096502;28;19908;-73
2023/12/20 16:20:12;;;;;;;;;;;;;;;;;;5093229;28;19908;-72
2023/12/20 16:22:38;;;;;;;;;;;;;;;;;;5077654;28;19919;-73
2023/12/20 16:25:07;;;;;;;;;;;;;;;;;;5096228;28;20315;-74
2023/12/20 16:27:33;;;;;;;;;;;;;;;;;;5078038;28;19908;-74
2023/12/20 16:29:59;;;;;;;;;;;;;;;;;;5077531;28;19930;-74
2023/12/20 16:32:26;;;;;;;;;;;;;;;;;;5096168;28;20003;-74
2023/12/20 16:34:52;;;;;;;;;;;;;;;;;;5096066;28;19908;-74
2023/12/20 16:37:18;;;;;;;;;;;;;;;;;;5095633;28;19916;-74
2023/12/20 16:39:44;;;;;;;;;;;;;;;;;;5095773;28;19915;-75
2023/12/20 16:42:10;;;;;;;;;;;;;;;;;;5096133;28;19953;-76
2023/12/20 16:44:36;;;;;;;;;;;;;;;;;;5095264;28;20329;-75
2023/12/20 16:47:02;;;;;;;;;;;;;;;;;;5095465;28;19953;-74
2023/12/20 16:49:28;;;;;;;;;;;;;;;;;;5094895;28;20404;-74
2023/12/20 16:51:54;;;;;;;;;;;;;;;;;;5095749;28;20387;-75
2023/12/20 16:54:20;;;;;;;;;;;;;;;;;;5095509;28;19969;-74
2023/12/20 16:56:46;;;;;;;;;;;;;;;;;;5095145;28;19912;-73
2023/12/20 16:59:12;;;;;;;;;;;;;;;;;;5095587;28;19908;-74
2023/12/20 17:01:38;;;;;;;;;;;;;;;;;;5095557;28;19912;-73
2023/12/20 17:04:04;;;;;;;;;;;;;;;;;;5095006;28;20355;-73
2023/12/20 17:06:30;;;;;;;;;;;;;;;;;;5076348;28;19908;-73
2023/12/20 17:08:56;;;;;;;;;;;;;;;;;;5095440;28;19934;-73
2023/12/20 17:11:22;;;;;;;;;;;;;;;;;;5095002;28;20372;-74
2023/12/20 17:13:48;;;;;;;;;;;;;;;;;;5077216;28;20383;-75
2023/12/20 17:16:14;;;;;;;;;;;;;;;;;;5077084;28;19978;-72
2023/12/20 17:18:40;;;;;;;;;;;;;;;;;;5094701;28;19934;-74
2023/12/20 17:21:06;;;;;;;;;;;;;;;;;;5077081;28;19912;-74
2023/12/20 17:23:32;;;;;;;;;;;;;;;;;;5094717;28;20007;-74
2023/12/20 17:25:58;;;;;;;;;;;;;;;;;;5094506;28;19950;-74